Time;durP1;ratioP1;P1;durP2;ratioP2;P2;SDS_P1;SDS_P2;PMS_P1;PMS_P2;Temp;Humidity;BMP_temperature;BMP_pressure;BME280_temperature;BME280_humidity;BME280_pressure;Samples;Min_cycle;Max_cycle;Signal;HPM_P1;HPM_P2
2022/07/06 00:00:49;;;;;;;8.38;4.31;;;;;;;;;;388677;137;864593;-66
2022/07/06 00:01:51;;;;;;;10.59;4.66;;;;;;;;;;388690;137;858047;-66
2022/07/06 00:02:53;;;;;;;8.97;4.55;;;;;;;;;;388708;138;860349;-66
2022/07/06 00:03:55;;;;;;;6.35;4.59;;;;;;;;;;388689;138;857281;-66
2022/07/06 00:04:57;;;;;;;6.85;4.55;;;;;;;;;;388669;137;865166;-65
2022/07/06 00:05:59;;;;;;;6.93;4.13;;;;;;;;;;388594;138;857534;-66
2022/07/06 00:07:01;;;;;;;7.25;4.31;;;;;;;;;;388698;137;857104;-66
2022/07/06 00:08:03;;;;;;;5.10;4.48;;;;;;;;;;388479;138;857120;-66
2022/07/06 00:09:05;;;;;;;7.20;4.73;;;;;;;;;;388648;137;865934;-64
2022/07/06 00:10:07;;;;;;;7.09;4.67;;;;;;;;;;388723;138;857370;-63
2022/07/06 00:11:09;;;;;;;6.70;4.34;;;;;;;;;;388687;138;861222;-64
2022/07/06 00:12:11;;;;;;;8.07;4.39;;;;;;;;;;388601;137;865768;-64
2022/07/06 00:13:12;;;;;;;7.76;4.39;;;;;;;;;;387190;137;857290;-64
2022/07/06 00:14:14;;;;;;;7.49;4.90;;;;;;;;;;386150;138;859127;-64
2022/07/06 00:15:16;;;;;;;5.97;4.38;;;;;;;;;;386074;139;864929;-63
2022/07/06 00:16:19;;;;;;;9.08;4.82;;;;;;;;;;385593;138;867082;-63
2022/07/06 00:17:21;;;;;;;6.29;4.16;;;;;;;;;;386067;139;864953;-64
2022/07/06 00:18:23;;;;;;;6.96;4.58;;;;;;;;;;386055;138;864890;-64
2022/07/06 00:19:25;;;;;;;6.72;4.79;;;;;;;;;;386145;138;857326;-64
2022/07/06 00:20:29;;;;;;;4.71;4.27;;;;;;;;;;385978;138;857131;-64
2022/07/06 00:21:30;;;;;;;6.02;4.60;;;;;;;;;;385908;138;864322;-64
2022/07/06 00:22:32;;;;;;;6.89;4.73;;;;;;;;;;386072;139;865730;-63
2022/07/06 00:23:34;;;;;;;6.77;4.29;;;;;;;;;;377786;141;858560;-64
2022/07/06 00:24:36;;;;;;;5.28;4.36;;;;;;;;;;377804;139;856583;-64
2022/07/06 00:25:38;;;;;;;6.63;3.81;;;;;;;;;;386077;138;865201;-64
2022/07/06 00:26:40;;;;;;;6.28;3.95;;;;;;;;;;386151;138;857133;-64
2022/07/06 00:27:42;;;;;;;6.53;4.03;;;;;;;;;;386134;138;858084;-64
2022/07/06 00:28:43;;;;;;;5.51;4.42;;;;;;;;;;385929;138;857015;-64
2022/07/06 00:29:45;;;;;;;7.51;4.87;;;;;;;;;;386024;138;858158;-64
2022/07/06 00:30:47;;;;;;;7.60;4.38;;;;;;;;;;386104;138;860074;-64
2022/07/06 00:31:49;;;;;;;7.05;4.85;;;;;;;;;;386161;138;858602;-64
2022/07/06 00:32:51;;;;;;;6.57;4.46;;;;;;;;;;385844;138;857301;-64
2022/07/06 00:33:53;;;;;;;7.37;4.24;;;;;;;;;;386156;138;857962;-64
2022/07/06 00:34:55;;;;;;;6.16;4.26;;;;;;;;;;386136;139;857246;-64
2022/07/06 00:35:57;;;;;;;5.59;4.15;;;;;;;;;;386065;138;865164;-64
2022/07/06 00:36:59;;;;;;;6.87;4.33;;;;;;;;;;386151;138;857144;-64
2022/07/06 00:38:01;;;;;;;6.33;4.56;;;;;;;;;;386137;138;858195;-64
2022/07/06 00:39:03;;;;;;;6.77;4.55;;;;;;;;;;386180;139;856960;-64
2022/07/06 00:40:05;;;;;;;6.24;4.31;;;;;;;;;;386136;139;858026;-63
2022/07/06 00:41:07;;;;;;;5.39;3.99;;;;;;;;;;386078;139;865636;-64
2022/07/06 00:42:09;;;;;;;6.25;4.60;;;;;;;;;;386171;138;858391;-64
2022/07/06 00:43:11;;;;;;;6.96;4.86;;;;;;;;;;386207;138;857935;-64
2022/07/06 00:44:12;;;;;;;5.64;4.21;;;;;;;;;;386153;138;857162;-64
2022/07/06 00:45:14;;;;;;;7.41;4.51;;;;;;;;;;386052;138;868264;-64
2022/07/06 00:46:17;;;;;;;6.35;4.45;;;;;;;;;;386075;139;864860;-64
2022/07/06 00:47:18;;;;;;;4.75;4.04;;;;;;;;;;386113;139;857108;-64
2022/07/06 00:48:20;;;;;;;6.01;4.33;;;;;;;;;;386119;139;864625;-64
2022/07/06 00:50:42;;;;;;;11.86;4.95;;;;;;;;;;385983;139;864985;-64
2022/07/06 00:51:44;;;;;;;8.79;4.39;;;;;;;;;;386065;138;857735;-64
2022/07/06 00:52:46;;;;;;;7.49;4.41;;;;;;;;;;385906;139;857555;-64
2022/07/06 00:53:48;;;;;;;6.64;4.21;;;;;;;;;;385886;139;864905;-64
2022/07/06 00:54:49;;;;;;;6.69;4.46;;;;;;;;;;385980;139;857539;-64
2022/07/06 00:55:51;;;;;;;6.11;4.31;;;;;;;;;;385958;138;864141;-64
2022/07/06 00:56:53;;;;;;;6.89;4.65;;;;;;;;;;385873;138;859759;-64
2022/07/06 00:57:55;;;;;;;9.25;4.49;;;;;;;;;;385869;138;864747;-64
2022/07/06 00:58:56;;;;;;;8.74;4.88;;;;;;;;;;385809;138;864872;-64
2022/07/06 00:59:58;;;;;;;9.15;4.38;;;;;;;;;;386046;138;867163;-64
2022/07/06 01:01:00;;;;;;;6.65;4.61;;;;;;;;;;386140;138;857379;-65
2022/07/06 01:02:02;;;;;;;5.99;4.30;;;;;;;;;;386101;138;858826;-66
2022/07/06 01:03:04;;;;;;;6.43;4.35;;;;;;;;;;386048;139;864952;-64
2022/07/06 01:04:06;;;;;;;6.49;4.01;;;;;;;;;;386063;138;865616;-64
2022/07/06 01:05:08;;;;;;;5.39;4.21;;;;;;;;;;386074;139;864515;-65
2022/07/06 01:06:11;;;;;;;6.19;4.62;;;;;;;;;;385947;139;867205;-65
2022/07/06 01:07:13;;;;;;;5.73;4.43;;;;;;;;;;386123;139;857045;-65
2022/07/06 01:08:16;;;;;;;11.59;5.22;;;;;;;;;;386077;139;858685;-65
2022/07/06 01:09:17;;;;;;;6.98;4.45;;;;;;;;;;386024;139;860109;-65
2022/07/06 01:10:21;;;;;;;6.53;4.47;;;;;;;;;;385867;138;857505;-65
2022/07/06 01:11:22;;;;;;;7.92;4.58;;;;;;;;;;386093;138;858054;-65
2022/07/06 01:12:24;;;;;;;4.80;4.31;;;;;;;;;;386076;138;866346;-65
2022/07/06 01:13:26;;;;;;;5.02;4.43;;;;;;;;;;386022;139;859207;-64
2022/07/06 01:14:28;;;;;;;6.22;4.25;;;;;;;;;;385771;138;867273;-66
2022/07/06 01:15:30;;;;;;;8.60;4.46;;;;;;;;;;386565;139;858590;-65
2022/07/06 01:16:32;;;;;;;8.43;4.73;;;;;;;;;;386036;138;865727;-64
2022/07/06 01:17:34;;;;;;;6.46;4.45;;;;;;;;;;386130;139;858741;-65
2022/07/06 01:18:35;;;;;;;6.88;4.86;;;;;;;;;;386035;139;866073;-64
2022/07/06 01:19:37;;;;;;;6.53;4.36;;;;;;;;;;386053;138;864891;-64
2022/07/06 01:20:39;;;;;;;8.62;4.19;;;;;;;;;;386156;138;857191;-64
2022/07/06 01:21:41;;;;;;;8.81;4.76;;;;;;;;;;385891;139;857313;-64
2022/07/06 01:22:44;;;;;;;6.67;4.45;;;;;;;;;;386132;138;857473;-67
2022/07/06 01:23:46;;;;;;;9.76;4.58;;;;;;;;;;385842;139;857545;-67
2022/07/06 01:24:48;;;;;;;5.09;4.47;;;;;;;;;;386192;139;857388;-67
2022/07/06 01:25:50;;;;;;;5.99;4.57;;;;;;;;;;386604;138;857544;-67
2022/07/06 01:26:52;;;;;;;8.61;4.68;;;;;;;;;;386551;138;858490;-67
2022/07/06 01:27:54;;;;;;;8.97;4.94;;;;;;;;;;386546;138;858936;-67
2022/07/06 01:28:55;;;;;;;6.31;4.61;;;;;;;;;;386580;138;857585;-64
2022/07/06 01:29:57;;;;;;;7.20;4.31;;;;;;;;;;386128;139;857414;-65
2022/07/06 01:30:59;;;;;;;6.65;4.88;;;;;;;;;;386089;139;864772;-65
2022/07/06 01:32:01;;;;;;;6.56;4.47;;;;;;;;;;386128;138;858336;-67
2022/07/06 01:33:03;;;;;;;6.16;4.86;;;;;;;;;;378184;141;857996;-64
2022/07/06 01:34:05;;;;;;;6.80;4.85;;;;;;;;;;377622;142;857926;-64
2022/07/06 01:35:08;;;;;;;7.58;4.33;;;;;;;;;;386086;139;857459;-64
2022/07/06 01:36:12;;;;;;;5.73;4.53;;;;;;;;;;386025;138;864670;-64
2022/07/06 01:37:14;;;;;;;7.02;5.03;;;;;;;;;;386020;138;857464;-64
2022/07/06 01:38:15;;;;;;;6.95;5.21;;;;;;;;;;386084;138;864828;-64
2022/07/06 01:39:17;;;;;;;7.45;4.71;;;;;;;;;;386153;138;857018;-64
2022/07/06 01:40:19;;;;;;;8.22;4.73;;;;;;;;;;385896;138;865044;-64
2022/07/06 01:41:23;;;;;;;6.93;4.61;;;;;;;;;;386094;138;857261;-64
2022/07/06 01:42:24;;;;;;;4.97;3.83;;;;;;;;;;386169;139;857349;-64
2022/07/06 01:43:26;;;;;;;5.79;4.59;;;;;;;;;;386073;139;865031;-64
2022/07/06 01:44:28;;;;;;;8.05;4.66;;;;;;;;;;386122;138;857567;-64
2022/07/06 01:45:31;;;;;;;8.21;4.96;;;;;;;;;;386113;138;863743;-64
2022/07/06 01:46:33;;;;;;;8.54;4.67;;;;;;;;;;385933;138;858351;-64
2022/07/06 01:47:35;;;;;;;7.41;4.86;;;;;;;;;;386096;138;858666;-64
2022/07/06 01:48:37;;;;;;;4.71;4.31;;;;;;;;;;385794;139;867219;-64
2022/07/06 01:49:39;;;;;;;5.09;4.59;;;;;;;;;;385849;138;865022;-64
2022/07/06 01:50:40;;;;;;;5.53;4.30;;;;;;;;;;385807;138;864660;-64
2022/07/06 01:51:42;;;;;;;6.43;5.15;;;;;;;;;;386111;139;857190;-64
2022/07/06 01:52:44;;;;;;;6.53;4.66;;;;;;;;;;386044;139;864881;-64
2022/07/06 01:53:46;;;;;;;5.89;4.99;;;;;;;;;;386093;138;865050;-64
2022/07/06 01:54:47;;;;;;;7.04;4.29;;;;;;;;;;385845;139;865370;-64
2022/07/06 01:55:49;;;;;;;5.26;4.59;;;;;;;;;;386074;138;864743;-64
2022/07/06 01:56:51;;;;;;;7.10;4.78;;;;;;;;;;386127;138;859178;-64
2022/07/06 01:57:52;;;;;;;7.34;4.41;;;;;;;;;;386171;138;857084;-64
2022/07/06 01:58:54;;;;;;;6.51;4.66;;;;;;;;;;381102;141;864513;-64
2022/07/06 01:59:56;;;;;;;5.47;4.84;;;;;;;;;;381103;139;864820;-64
2022/07/06 02:00:58;;;;;;;6.37;4.60;;;;;;;;;;386084;139;864668;-64
2022/07/06 02:02:00;;;;;;;8.45;5.10;;;;;;;;;;386059;138;859854;-64
2022/07/06 02:03:02;;;;;;;5.91;4.62;;;;;;;;;;386147;139;856971;-64
2022/07/06 02:04:03;;;;;;;6.35;4.61;;;;;;;;;;386090;138;864279;-63
2022/07/06 02:05:05;;;;;;;6.19;4.96;;;;;;;;;;386099;138;865812;-64
2022/07/06 02:06:08;;;;;;;7.95;5.03;;;;;;;;;;386077;139;857852;-63
2022/07/06 02:07:09;;;;;;;5.66;5.03;;;;;;;;;;386048;138;864845;-64
2022/07/06 02:08:11;;;;;;;6.41;4.84;;;;;;;;;;386051;138;865431;-64
2022/07/06 02:09:12;;;;;;;5.39;4.63;;;;;;;;;;386093;138;857375;-63
2022/07/06 02:10:14;;;;;;;10.27;5.13;;;;;;;;;;386030;138;859570;-64
2022/07/06 02:11:16;;;;;;;8.09;5.18;;;;;;;;;;386066;138;860404;-63
2022/07/06 02:12:18;;;;;;;6.21;4.81;;;;;;;;;;386115;138;857830;-64
2022/07/06 02:13:19;;;;;;;9.32;5.19;;;;;;;;;;386050;138;860568;-64
2022/07/06 02:14:21;;;;;;;6.56;4.99;;;;;;;;;;387608;138;857441;-63
2022/07/06 02:15:23;;;;;;;6.94;4.45;;;;;;;;;;388596;137;864894;-64
2022/07/06 02:16:25;;;;;;;6.47;4.96;;;;;;;;;;388590;138;857413;-64
2022/07/06 02:17:27;;;;;;;7.41;5.01;;;;;;;;;;388472;137;857377;-64
2022/07/06 02:18:29;;;;;;;6.73;4.89;;;;;;;;;;388645;137;859257;-64
2022/07/06 02:19:30;;;;;;;5.91;4.74;;;;;;;;;;388626;137;858964;-65
2022/07/06 02:20:32;;;;;;;7.94;4.45;;;;;;;;;;388697;137;858021;-64
2022/07/06 02:21:34;;;;;;;6.39;4.48;;;;;;;;;;388584;137;865632;-65
2022/07/06 02:22:35;;;;;;;8.52;5.32;;;;;;;;;;388442;137;857429;-65
2022/07/06 02:23:37;;;;;;;6.21;4.53;;;;;;;;;;388689;137;859094;-65
2022/07/06 02:24:38;;;;;;;9.01;5.01;;;;;;;;;;388374;137;865341;-65
2022/07/06 02:25:40;;;;;;;9.78;4.90;;;;;;;;;;388649;137;858412;-65
2022/07/06 02:26:42;;;;;;;7.25;4.76;;;;;;;;;;388637;137;858281;-64
2022/07/06 02:27:43;;;;;;;6.75;4.79;;;;;;;;;;388616;137;864895;-64
2022/07/06 02:28:47;;;;;;;9.15;4.86;;;;;;;;;;388660;137;859583;-64
2022/07/06 02:29:48;;;;;;;7.03;4.96;;;;;;;;;;388507;138;858026;-64
2022/07/06 02:30:50;;;;;;;5.67;4.79;;;;;;;;;;388635;137;859277;-64
2022/07/06 02:31:51;;;;;;;7.60;5.24;;;;;;;;;;388609;137;867277;-64
2022/07/06 02:32:53;;;;;;;7.11;4.94;;;;;;;;;;388634;137;859546;-64
2022/07/06 02:33:55;;;;;;;10.04;4.65;;;;;;;;;;388642;137;857924;-64
2022/07/06 02:34:57;;;;;;;6.31;3.94;;;;;;;;;;388615;137;859578;-64
2022/07/06 02:35:59;;;;;;;7.12;4.45;;;;;;;;;;388435;137;857370;-64
2022/07/06 02:37:01;;;;;;;11.92;4.73;;;;;;;;;;388683;138;860525;-64
2022/07/06 02:38:02;;;;;;;6.66;4.73;;;;;;;;;;388651;137;857370;-64
2022/07/06 02:39:04;;;;;;;6.36;4.61;;;;;;;;;;388612;137;864964;-64
2022/07/06 02:40:06;;;;;;;8.29;4.70;;;;;;;;;;388629;138;859715;-64
2022/07/06 02:41:08;;;;;;;8.01;4.29;;;;;;;;;;388345;138;865323;-64
2022/07/06 02:42:10;;;;;;;7.24;4.44;;;;;;;;;;388482;138;858260;-64
2022/07/06 02:43:12;;;;;;;5.94;4.92;;;;;;;;;;388644;137;859189;-64
2022/07/06 02:44:14;;;;;;;6.85;4.43;;;;;;;;;;388670;137;857406;-64
2022/07/06 02:45:15;;;;;;;6.16;4.54;;;;;;;;;;388675;137;859244;-64
2022/07/06 02:46:18;;;;;;;8.33;4.75;;;;;;;;;;388588;138;857368;-65
2022/07/06 02:47:19;;;;;;;7.77;4.54;;;;;;;;;;388589;137;865201;-65
2022/07/06 02:48:21;;;;;;;6.23;4.86;;;;;;;;;;388638;137;857514;-65
2022/07/06 02:49:23;;;;;;;8.97;4.60;;;;;;;;;;388668;138;858382;-65
2022/07/06 02:50:25;;;;;;;6.88;5.07;;;;;;;;;;388605;137;864848;-65
2022/07/06 02:51:26;;;;;;;6.82;4.63;;;;;;;;;;388672;137;857547;-65
2022/07/06 02:52:28;;;;;;;8.30;4.83;;;;;;;;;;388647;137;858188;-64
2022/07/06 02:53:29;;;;;;;6.05;4.45;;;;;;;;;;388627;137;864837;-65
2022/07/06 02:54:31;;;;;;;7.03;4.81;;;;;;;;;;388660;137;860088;-65
2022/07/06 02:55:33;;;;;;;9.49;4.99;;;;;;;;;;388661;137;857374;-65
2022/07/06 02:56:34;;;;;;;5.73;4.49;;;;;;;;;;388616;137;864869;-65
2022/07/06 02:57:36;;;;;;;6.64;4.98;;;;;;;;;;388629;137;866840;-65
2022/07/06 02:58:38;;;;;;;9.34;4.75;;;;;;;;;;388637;137;858894;-65
2022/07/06 02:59:39;;;;;;;6.69;4.94;;;;;;;;;;388455;137;857387;-65
2022/07/06 03:00:41;;;;;;;6.78;5.11;;;;;;;;;;388667;138;859815;-64
2022/07/06 03:01:42;;;;;;;7.77;5.26;;;;;;;;;;388593;137;866082;-66
2022/07/06 03:02:44;;;;;;;6.43;4.34;;;;;;;;;;388675;137;857332;-65
2022/07/06 03:03:46;;;;;;;8.52;5.01;;;;;;;;;;388623;137;859508;-65
2022/07/06 03:04:47;;;;;;;9.96;5.04;;;;;;;;;;388647;137;858185;-65
2022/07/06 03:05:49;;;;;;;8.51;5.04;;;;;;;;;;388645;137;859578;-65
2022/07/06 03:06:51;;;;;;;9.46;4.89;;;;;;;;;;388662;138;857465;-64
2022/07/06 03:07:52;;;;;;;8.96;4.62;;;;;;;;;;388653;137;857516;-65
2022/07/06 03:08:54;;;;;;;7.56;4.64;;;;;;;;;;388402;137;865038;-65
2022/07/06 03:09:55;;;;;;;9.82;4.82;;;;;;;;;;388620;137;860304;-65
2022/07/06 03:10:57;;;;;;;8.77;5.05;;;;;;;;;;388595;138;858317;-64
2022/07/06 03:11:59;;;;;;;6.50;4.81;;;;;;;;;;388603;137;864862;-65
2022/07/06 03:13:00;;;;;;;7.80;4.86;;;;;;;;;;388680;137;859441;-64
2022/07/06 03:14:04;;;;;;;6.15;4.73;;;;;;;;;;388626;137;858935;-65
2022/07/06 03:15:06;;;;;;;5.32;4.64;;;;;;;;;;386197;137;857443;-64
2022/07/06 03:16:08;;;;;;;7.33;5.00;;;;;;;;;;385888;138;858942;-64
2022/07/06 03:17:10;;;;;;;7.99;4.76;;;;;;;;;;386090;138;858255;-64
2022/07/06 03:18:11;;;;;;;6.98;4.99;;;;;;;;;;386009;138;866921;-64
2022/07/06 03:19:13;;;;;;;6.19;4.78;;;;;;;;;;386060;138;859710;-64
2022/07/06 03:20:15;;;;;;;8.03;4.49;;;;;;;;;;386093;138;857373;-64
2022/07/06 03:21:17;;;;;;;7.73;4.76;;;;;;;;;;386050;138;859426;-64
2022/07/06 03:22:18;;;;;;;6.54;4.67;;;;;;;;;;386085;139;857374;-64
2022/07/06 03:23:20;;;;;;;8.17;4.64;;;;;;;;;;385803;138;864949;-64
2022/07/06 03:24:22;;;;;;;6.71;5.01;;;;;;;;;;386056;138;858832;-64
2022/07/06 03:25:23;;;;;;;6.24;4.74;;;;;;;;;;386030;138;865372;-64
2022/07/06 03:26:25;;;;;;;6.11;5.01;;;;;;;;;;386075;139;859352;-64
2022/07/06 03:27:27;;;;;;;6.62;4.76;;;;;;;;;;386058;138;861379;-64
2022/07/06 03:28:29;;;;;;;7.26;4.93;;;;;;;;;;385890;138;857503;-65
2022/07/06 03:29:30;;;;;;;5.99;4.68;;;;;;;;;;385893;138;858329;-65
2022/07/06 03:30:32;;;;;;;5.97;4.70;;;;;;;;;;386117;138;858005;-65
2022/07/06 03:31:35;;;;;;;10.48;5.01;;;;;;;;;;385822;138;857210;-65
2022/07/06 03:32:37;;;;;;;6.87;4.79;;;;;;;;;;386022;139;865459;-65
2022/07/06 03:33:39;;;;;;;5.93;4.81;;;;;;;;;;385856;139;857689;-65
2022/07/06 03:34:40;;;;;;;7.94;4.96;;;;;;;;;;386146;138;858560;-65
2022/07/06 03:35:42;;;;;;;8.03;4.94;;;;;;;;;;386154;138;858809;-65
2022/07/06 03:36:45;;;;;;;5.45;4.61;;;;;;;;;;385890;139;864829;-65
2022/07/06 03:37:47;;;;;;;5.23;4.66;;;;;;;;;;377721;141;856906;-65
2022/07/06 03:38:49;;;;;;;7.03;4.83;;;;;;;;;;377753;142;857188;-65
2022/07/06 03:39:50;;;;;;;5.60;4.84;;;;;;;;;;386018;138;856716;-65
2022/07/06 03:40:53;;;;;;;7.14;4.87;;;;;;;;;;386099;138;864501;-65
2022/07/06 03:41:55;;;;;;;6.49;4.16;;;;;;;;;;386102;138;857439;-65
2022/07/06 03:42:57;;;;;;;6.85;4.53;;;;;;;;;;385913;138;857228;-65
2022/07/06 03:43:59;;;;;;;5.83;4.72;;;;;;;;;;386176;138;857407;-65
2022/07/06 03:45:01;;;;;;;8.45;4.88;;;;;;;;;;386190;138;856939;-65
2022/07/06 03:46:03;;;;;;;7.33;4.65;;;;;;;;;;386076;138;864808;-65
2022/07/06 03:47:04;;;;;;;6.96;4.86;;;;;;;;;;386160;138;857753;-65
2022/07/06 03:48:06;;;;;;;6.89;4.70;;;;;;;;;;386100;139;866402;-65
2022/07/06 03:49:08;;;;;;;9.86;4.64;;;;;;;;;;377711;141;864455;-66
2022/07/06 03:50:10;;;;;;;9.41;4.81;;;;;;;;;;377736;139;864416;-66
2022/07/06 03:51:12;;;;;;;6.30;4.70;;;;;;;;;;386228;139;858681;-66
2022/07/06 03:52:14;;;;;;;5.99;4.73;;;;;;;;;;386142;138;857010;-66
2022/07/06 03:53:15;;;;;;;10.57;4.76;;;;;;;;;;386130;138;857293;-66
2022/07/06 03:54:17;;;;;;;7.69;5.29;;;;;;;;;;386097;139;865125;-66
2022/07/06 03:55:19;;;;;;;6.37;4.94;;;;;;;;;;386095;138;864572;-66
2022/07/06 03:56:27;;;;;;;8.25;4.99;;;;;;;;;;386052;138;864996;-66
2022/07/06 03:57:29;;;;;;;8.23;4.93;;;;;;;;;;385909;139;857660;-66
2022/07/06 03:58:31;;;;;;;6.80;4.80;;;;;;;;;;386160;138;856853;-66
2022/07/06 03:59:33;;;;;;;7.25;4.87;;;;;;;;;;386059;138;857394;-66
2022/07/06 04:00:35;;;;;;;6.19;4.62;;;;;;;;;;386081;139;857443;-66
2022/07/06 04:01:37;;;;;;;6.76;4.82;;;;;;;;;;386048;139;865034;-66
2022/07/06 04:02:39;;;;;;;5.78;5.17;;;;;;;;;;386126;138;857065;-66
2022/07/06 04:03:41;;;;;;;9.67;4.79;;;;;;;;;;386037;139;864247;-66
2022/07/06 04:04:42;;;;;;;6.56;5.13;;;;;;;;;;386099;138;856835;-66
2022/07/06 04:05:44;;;;;;;6.50;5.01;;;;;;;;;;386092;138;864497;-64
2022/07/06 04:06:46;;;;;;;8.09;5.17;;;;;;;;;;386109;139;857447;-65
2022/07/06 04:07:48;;;;;;;7.63;5.17;;;;;;;;;;386100;138;858980;-65
2022/07/06 04:08:50;;;;;;;6.75;4.69;;;;;;;;;;386078;139;865592;-65
2022/07/06 04:09:51;;;;;;;5.71;4.93;;;;;;;;;;386127;138;856809;-65
2022/07/06 04:10:53;;;;;;;7.91;5.02;;;;;;;;;;386044;138;866570;-65
2022/07/06 04:11:55;;;;;;;5.86;5.08;;;;;;;;;;386120;138;858326;-65
2022/07/06 04:12:57;;;;;;;6.74;5.08;;;;;;;;;;386096;139;857424;-65
2022/07/06 04:13:58;;;;;;;9.99;5.10;;;;;;;;;;386023;138;864999;-65
2022/07/06 04:15:00;;;;;;;6.21;4.85;;;;;;;;;;386004;139;864794;-65
2022/07/06 04:16:02;;;;;;;7.69;5.21;;;;;;;;;;386081;138;864761;-65
2022/07/06 04:19:26;;;;;;;8.01;5.33;;;;;;;;;;385911;139;857024;-64
2022/07/06 04:20:28;;;;;;;8.66;4.63;;;;;;;;;;385885;139;857030;-64
2022/07/06 04:21:30;;;;;;;10.96;5.56;;;;;;;;;;386111;139;857638;-64
2022/07/06 04:22:32;;;;;;;8.97;5.46;;;;;;;;;;386104;138;857224;-64
2022/07/06 04:23:33;;;;;;;10.17;5.54;;;;;;;;;;377984;142;864453;-64
2022/07/06 04:24:35;;;;;;;7.07;5.16;;;;;;;;;;378062;139;858727;-64
2022/07/06 04:25:37;;;;;;;6.76;5.05;;;;;;;;;;385853;139;856990;-64
2022/07/06 04:26:39;;;;;;;9.02;6.03;;;;;;;;;;386080;138;858686;-67
2022/07/06 04:27:41;;;;;;;5.99;5.14;;;;;;;;;;386064;138;864727;-64
2022/07/06 04:28:43;;;;;;;7.50;5.41;;;;;;;;;;385813;139;866506;-64
2022/07/06 04:29:44;;;;;;;7.89;5.09;;;;;;;;;;386130;139;857012;-64
2022/07/06 04:30:47;;;;;;;8.23;5.31;;;;;;;;;;386093;138;864754;-65
2022/07/06 04:31:49;;;;;;;6.96;5.47;;;;;;;;;;386109;138;859079;-65
2022/07/06 04:32:51;;;;;;;9.18;6.15;;;;;;;;;;386085;139;858144;-64
2022/07/06 04:33:53;;;;;;;7.78;5.89;;;;;;;;;;386131;138;857242;-64
2022/07/06 04:34:54;;;;;;;8.04;5.43;;;;;;;;;;386090;139;857479;-64
2022/07/06 04:35:56;;;;;;;6.87;5.83;;;;;;;;;;386121;138;864364;-65
2022/07/06 04:36:58;;;;;;;10.56;5.85;;;;;;;;;;386090;138;857319;-65
2022/07/06 04:38:00;;;;;;;10.26;5.47;;;;;;;;;;381112;141;858488;-65
2022/07/06 04:39:02;;;;;;;7.66;5.63;;;;;;;;;;381122;139;858660;-65
2022/07/06 04:40:04;;;;;;;8.78;5.40;;;;;;;;;;386142;138;858397;-65
2022/07/06 04:41:06;;;;;;;6.38;5.14;;;;;;;;;;386149;138;858806;-65
2022/07/06 04:42:10;;;;;;;10.67;5.49;;;;;;;;;;386084;138;857150;-65
2022/07/06 04:43:13;;;;;;;8.87;5.82;;;;;;;;;;385979;139;857295;-65
2022/07/06 04:44:14;;;;;;;7.67;5.15;;;;;;;;;;386171;138;858017;-64
2022/07/06 04:45:16;;;;;;;8.21;5.39;;;;;;;;;;386145;138;857512;-65
2022/07/06 04:46:20;;;;;;;8.09;5.09;;;;;;;;;;385695;138;865004;-64
2022/07/06 04:47:21;;;;;;;5.96;5.14;;;;;;;;;;386168;138;856852;-64
2022/07/06 04:48:23;;;;;;;9.11;4.94;;;;;;;;;;386168;139;858239;-65
2022/07/06 04:49:25;;;;;;;8.77;5.47;;;;;;;;;;386071;138;865481;-64
2022/07/06 04:50:27;;;;;;;7.43;4.96;;;;;;;;;;386090;139;864519;-65
2022/07/06 04:51:29;;;;;;;5.60;4.98;;;;;;;;;;386141;138;859121;-65
2022/07/06 04:52:31;;;;;;;9.59;5.39;;;;;;;;;;386116;138;858866;-65
2022/07/06 04:53:33;;;;;;;7.32;4.93;;;;;;;;;;386076;138;865101;-65
2022/07/06 04:54:35;;;;;;;6.35;5.05;;;;;;;;;;386126;138;858167;-65
2022/07/06 04:55:36;;;;;;;6.40;5.23;;;;;;;;;;386079;138;864726;-65
2022/07/06 04:56:38;;;;;;;6.31;5.37;;;;;;;;;;386119;138;857240;-65
2022/07/06 04:57:40;;;;;;;9.68;5.99;;;;;;;;;;377996;142;860715;-65
2022/07/06 04:58:42;;;;;;;9.31;5.31;;;;;;;;;;377998;139;864820;-65
2022/07/06 04:59:43;;;;;;;5.98;5.21;;;;;;;;;;386061;138;860915;-67
2022/07/06 05:00:45;;;;;;;7.39;5.69;;;;;;;;;;386552;139;856960;-67
2022/07/06 05:01:47;;;;;;;6.95;5.61;;;;;;;;;;386505;138;864921;-67
2022/07/06 05:02:48;;;;;;;6.70;5.51;;;;;;;;;;386579;138;858552;-67
2022/07/06 05:03:50;;;;;;;7.56;5.41;;;;;;;;;;386555;138;857062;-68
2022/07/06 05:04:51;;;;;;;7.49;5.15;;;;;;;;;;386554;138;857066;-67
2022/07/06 05:05:53;;;;;;;9.49;5.20;;;;;;;;;;386489;138;864339;-67
2022/07/06 05:06:55;;;;;;;10.96;5.18;;;;;;;;;;386511;138;857143;-67
2022/07/06 05:07:56;;;;;;;9.73;5.41;;;;;;;;;;386512;138;859217;-67
2022/07/06 05:08:59;;;;;;;12.36;5.43;;;;;;;;;;386508;138;858466;-68
2022/07/06 05:10:01;;;;;;;6.26;4.75;;;;;;;;;;386233;139;857204;-65
2022/07/06 05:11:02;;;;;;;7.85;5.32;;;;;;;;;;385823;138;866895;-65
2022/07/06 05:12:04;;;;;;;7.44;4.94;;;;;;;;;;385857;138;857688;-65
2022/07/06 05:13:06;;;;;;;7.31;4.97;;;;;;;;;;386129;139;858941;-65
2022/07/06 05:14:08;;;;;;;8.76;5.53;;;;;;;;;;386071;138;859519;-65
2022/07/06 05:15:10;;;;;;;6.64;5.04;;;;;;;;;;386081;138;857348;-65
2022/07/06 05:16:12;;;;;;;7.85;5.44;;;;;;;;;;388174;138;864954;-65
2022/07/06 05:17:14;;;;;;;6.71;4.84;;;;;;;;;;388674;138;857872;-65
2022/07/06 05:18:16;;;;;;;6.16;5.16;;;;;;;;;;388596;137;865369;-65
2022/07/06 05:19:17;;;;;;;6.36;5.13;;;;;;;;;;388626;137;864986;-65
2022/07/06 05:20:20;;;;;;;7.37;5.53;;;;;;;;;;388416;138;857410;-65
2022/07/06 05:21:22;;;;;;;10.74;5.61;;;;;;;;;;388602;138;864847;-64
2022/07/06 05:22:24;;;;;;;9.49;5.38;;;;;;;;;;388600;138;866177;-65
2022/07/06 05:23:26;;;;;;;9.13;5.35;;;;;;;;;;388383;138;865552;-65
2022/07/06 05:24:28;;;;;;;10.76;5.38;;;;;;;;;;388634;137;857474;-65
2022/07/06 05:25:31;;;;;;;8.58;5.41;;;;;;;;;;388642;138;859814;-65
2022/07/06 05:26:33;;;;;;;9.21;5.36;;;;;;;;;;388473;138;865885;-65
2022/07/06 05:27:35;;;;;;;7.02;5.59;;;;;;;;;;388662;137;860030;-65
2022/07/06 05:28:36;;;;;;;7.98;4.90;;;;;;;;;;388668;137;857495;-65
2022/07/06 05:29:38;;;;;;;8.56;5.46;;;;;;;;;;388640;137;857539;-64
2022/07/06 05:30:39;;;;;;;10.04;5.64;;;;;;;;;;388453;138;857392;-65
2022/07/06 05:31:41;;;;;;;6.83;5.57;;;;;;;;;;388462;137;865683;-64
2022/07/06 05:32:43;;;;;;;10.09;5.24;;;;;;;;;;388642;137;857446;-64
2022/07/06 05:33:44;;;;;;;8.24;5.09;;;;;;;;;;388639;137;865429;-64
2022/07/06 05:34:46;;;;;;;6.57;5.44;;;;;;;;;;388482;137;857842;-64
2022/07/06 05:35:48;;;;;;;10.25;5.39;;;;;;;;;;388490;137;860305;-64
2022/07/06 05:36:49;;;;;;;8.96;5.47;;;;;;;;;;388656;138;857872;-65
2022/07/06 05:37:51;;;;;;;6.00;5.09;;;;;;;;;;388590;137;864909;-67
2022/07/06 05:38:53;;;;;;;6.16;5.19;;;;;;;;;;389106;137;859617;-67
2022/07/06 05:39:55;;;;;;;7.74;5.39;;;;;;;;;;389045;137;864574;-68
2022/07/06 05:40:57;;;;;;;6.82;5.53;;;;;;;;;;389041;137;865225;-67
2022/07/06 05:41:59;;;;;;;7.29;5.45;;;;;;;;;;389173;137;858558;-65
2022/07/06 05:43:01;;;;;;;12.27;6.23;;;;;;;;;;388623;138;857254;-65
2022/07/06 05:44:04;;;;;;;8.03;5.55;;;;;;;;;;388543;137;864454;-65
2022/07/06 05:45:06;;;;;;;9.29;5.62;;;;;;;;;;388647;137;857553;-65
2022/07/06 05:46:09;;;;;;;9.91;5.39;;;;;;;;;;388669;137;858668;-65
2022/07/06 05:51:11;;;;;;;7.56;5.71;;;;;;;;;;388509;138;857773;-65
2022/07/06 05:52:14;;;;;;;9.03;5.93;;;;;;;;;;388724;137;857086;-65
2022/07/06 05:53:15;;;;;;;7.36;5.27;;;;;;;;;;382625;140;857414;-65
2022/07/06 05:54:17;;;;;;;6.91;5.54;;;;;;;;;;383093;138;857655;-65
2022/07/06 05:55:19;;;;;;;9.03;5.77;;;;;;;;;;388650;138;864605;-66
2022/07/06 05:56:22;;;;;;;7.96;6.09;;;;;;;;;;388872;137;857071;-66
2022/07/06 05:57:30;;;;;;;8.31;5.64;;;;;;;;;;388539;137;857199;-65
2022/07/06 05:58:29;;;;;;;8.34;5.94;;;;;;;;;;387678;137;864981;-64
2022/07/06 05:59:31;;;;;;;6.41;5.43;;;;;;;;;;388494;137;865423;-64
2022/07/06 06:00:33;;;;;;;7.63;5.80;;;;;;;;;;388705;137;858510;-65
2022/07/06 06:01:34;;;;;;;9.44;5.92;;;;;;;;;;388734;137;857563;-65
2022/07/06 06:02:37;;;;;;;8.04;5.96;;;;;;;;;;388725;137;857781;-65
2022/07/06 06:03:39;;;;;;;8.63;6.02;;;;;;;;;;388625;137;864574;-64
2022/07/06 06:04:41;;;;;;;8.60;6.28;;;;;;;;;;388626;138;864293;-64
2022/07/06 06:05:43;;;;;;;12.31;6.24;;;;;;;;;;388661;137;857067;-64
2022/07/06 06:06:45;;;;;;;10.23;5.54;;;;;;;;;;388644;138;856899;-64
2022/07/06 06:07:48;;;;;;;7.64;6.31;;;;;;;;;;388674;138;865100;-64
2022/07/06 06:08:50;;;;;;;8.08;6.65;;;;;;;;;;388585;137;865117;-65
2022/07/06 06:09:52;;;;;;;10.32;6.26;;;;;;;;;;388620;138;864939;-64
2022/07/06 06:10:54;;;;;;;9.13;6.75;;;;;;;;;;388741;137;857738;-65
2022/07/06 06:11:56;;;;;;;9.77;6.40;;;;;;;;;;388735;138;857042;-64
2022/07/06 06:12:58;;;;;;;11.87;6.23;;;;;;;;;;388792;138;856860;-64